sensor_id;sensor_type;location;lat;lon;timestamp;temperature;humidity
28524;DHT22;15734;50.904;6.922;2023-04-15T00:01:25;6.40;99.90
28524;DHT22;15734;50.904;6.922;2023-04-15T00:03:51;6.30;99.90
28524;DHT22;15734;50.904;6.922;2023-04-15T00:06:17;6.20;99.90
28524;DHT22;15734;50.904;6.922;2023-04-15T00:08:44;6.00;99.90
28524;DHT22;15734;50.904;6.922;2023-04-15T00:11:09;5.80;99.90
28524;DHT22;15734;50.904;6.922;2023-04-15T00:13:35;5.50;99.90
28524;DHT22;15734;50.904;6.922;2023-04-15T00:16:00;5.40;99.90
28524;DHT22;15734;50.904;6.922;2023-04-15T00:18:26;5.30;99.90
28524;DHT22;15734;50.904;6.922;2023-04-15T00:20:51;5.30;99.90
28524;DHT22;15734;50.904;6.922;2023-04-15T00:23:17;5.40;99.90
28524;DHT22;15734;50.904;6.922;2023-04-15T00:25:43;5.50;99.90
28524;DHT22;15734;50.904;6.922;2023-04-15T00:28:09;5.50;99.90
28524;DHT22;15734;50.904;6.922;2023-04-15T00:30:34;5.60;99.90
28524;DHT22;15734;50.904;6.922;2023-04-15T00:33:00;5.50;99.90
28524;DHT22;15734;50.904;6.922;2023-04-15T00:35:26;5.40;99.90
28524;DHT22;15734;50.904;6.922;2023-04-15T00:37:52;5.30;99.90
28524;DHT22;15734;50.904;6.922;2023-04-15T00:40:18;5.30;99.90
28524;DHT22;15734;50.904;6.922;2023-04-15T00:42:45;5.10;99.90
28524;DHT22;15734;50.904;6.922;2023-04-15T00:45:10;5.00;99.90
28524;DHT22;15734;50.904;6.922;2023-04-15T00:47:36;4.90;99.90
28524;DHT22;15734;50.904;6.922;2023-04-15T00:50:02;4.90;99.90
28524;DHT22;15734;50.904;6.922;2023-04-15T00:52:27;5.00;99.90
28524;DHT22;15734;50.904;6.922;2023-04-15T00:54:53;5.00;99.90
28524;DHT22;15734;50.904;6.922;2023-04-15T00:57:19;5.00;99.90
28524;DHT22;15734;50.904;6.922;2023-04-15T00:59:45;5.00;99.90
28524;DHT22;15734;50.904;6.922;2023-04-15T01:02:11;4.90;99.90
28524;DHT22;15734;50.904;6.922;2023-04-15T01:04:36;4.90;99.90
28524;DHT22;15734;50.904;6.922;2023-04-15T01:07:02;4.80;99.90
28524;DHT22;15734;50.904;6.922;2023-04-15T01:09:28;4.70;99.90
28524;DHT22;15734;50.904;6.922;2023-04-15T01:11:53;4.70;99.90
28524;DHT22;15734;50.904;6.922;2023-04-15T01:14:19;4.70;99.90
28524;DHT22;15734;50.904;6.922;2023-04-15T01:16:45;4.80;99.90
28524;DHT22;15734;50.904;6.922;2023-04-15T01:19:11;4.80;99.90
28524;DHT22;15734;50.904;6.922;2023-04-15T01:21:38;4.90;99.90
28524;DHT22;15734;50.904;6.922;2023-04-15T01:24:05;4.90;99.90
28524;DHT22;15734;50.904;6.922;2023-04-15T01:26:33;5.00;99.90
28524;DHT22;15734;50.904;6.922;2023-04-15T01:28:58;5.00;99.90
28524;DHT22;15734;50.904;6.922;2023-04-15T01:31:24;5.00;99.90
28524;DHT22;15734;50.904;6.922;2023-04-15T01:33:49;4.90;99.90
28524;DHT22;15734;50.904;6.922;2023-04-15T01:36:14;4.90;99.90
28524;DHT22;15734;50.904;6.922;2023-04-15T01:38:40;5.00;99.90
28524;DHT22;15734;50.904;6.922;2023-04-15T01:41:05;5.00;99.90
28524;DHT22;15734;50.904;6.922;2023-04-15T01:43:34;5.00;99.90
28524;DHT22;15734;50.904;6.922;2023-04-15T01:46:01;5.00;99.90
28524;DHT22;15734;50.904;6.922;2023-04-15T01:48:27;5.10;99.90
28524;DHT22;15734;50.904;6.922;2023-04-15T01:50:53;5.00;99.90
28524;DHT22;15734;50.904;6.922;2023-04-15T01:53:19;4.90;99.90
28524;DHT22;15734;50.904;6.922;2023-04-15T01:55:44;4.60;99.90
28524;DHT22;15734;50.904;6.922;2023-04-15T01:58:10;4.50;99.90
28524;DHT22;15734;50.904;6.922;2023-04-15T02:00:35;4.30;99.90
28524;DHT22;15734;50.904;6.922;2023-04-15T02:03:01;4.30;99.90
28524;DHT22;15734;50.904;6.922;2023-04-15T02:05:26;4.20;99.90
28524;DHT22;15734;50.904;6.922;2023-04-15T02:07:52;4.30;99.90
28524;DHT22;15734;50.904;6.922;2023-04-15T02:10:18;4.30;99.90
28524;DHT22;15734;50.904;6.922;2023-04-15T02:12:43;4.40;99.90
28524;DHT22;15734;50.904;6.922;2023-04-15T02:15:09;4.40;99.90
28524;DHT22;15734;50.904;6.922;2023-04-15T02:17:35;4.40;99.90
28524;DHT22;15734;50.904;6.922;2023-04-15T02:20:00;4.50;99.90
28524;DHT22;15734;50.904;6.922;2023-04-15T02:22:26;4.50;99.90
28524;DHT22;15734;50.904;6.922;2023-04-15T02:24:52;4.50;99.90
28524;DHT22;15734;50.904;6.922;2023-04-15T02:27:17;4.50;99.90
28524;DHT22;15734;50.904;6.922;2023-04-15T02:29:43;4.40;99.90
28524;DHT22;15734;50.904;6.922;2023-04-15T02:32:09;4.30;99.90
28524;DHT22;15734;50.904;6.922;2023-04-15T02:34:36;4.20;99.90
28524;DHT22;15734;50.904;6.922;2023-04-15T02:37:03;4.20;99.90
28524;DHT22;15734;50.904;6.922;2023-04-15T02:39:29;4.20;99.90
28524;DHT22;15734;50.904;6.922;2023-04-15T02:41:55;4.30;99.90
28524;DHT22;15734;50.904;6.922;2023-04-15T02:44:23;4.40;99.90
28524;DHT22;15734;50.904;6.922;2023-04-15T02:46:49;4.40;99.90
28524;DHT22;15734;50.904;6.922;2023-04-15T02:49:17;4.50;99.90
28524;DHT22;15734;50.904;6.922;2023-04-15T02:51:42;4.40;99.90
28524;DHT22;15734;50.904;6.922;2023-04-15T02:54:07;4.50;99.90
28524;DHT22;15734;50.904;6.922;2023-04-15T02:56:33;4.50;99.90
28524;DHT22;15734;50.904;6.922;2023-04-15T02:58:58;4.50;99.90
28524;DHT22;15734;50.904;6.922;2023-04-15T03:01:24;4.50;99.90
28524;DHT22;15734;50.904;6.922;2023-04-15T03:03:50;4.40;99.90
28524;DHT22;15734;50.904;6.922;2023-04-15T03:06:15;4.20;99.90
28524;DHT22;15734;50.904;6.922;2023-04-15T03:08:41;4.10;99.90
28524;DHT22;15734;50.904;6.922;2023-04-15T03:11:06;4.10;99.90
28524;DHT22;15734;50.904;6.922;2023-04-15T03:13:32;4.10;99.90
28524;DHT22;15734;50.904;6.922;2023-04-15T03:15:58;4.10;99.90
28524;DHT22;15734;50.904;6.922;2023-04-15T03:18:23;4.20;99.90
28524;DHT22;15734;50.904;6.922;2023-04-15T03:20:49;4.00;99.90
28524;DHT22;15734;50.904;6.922;2023-04-15T03:23:14;3.90;99.90
28524;DHT22;15734;50.904;6.922;2023-04-15T03:25:40;3.70;99.90
28524;DHT22;15734;50.904;6.922;2023-04-15T03:28:06;3.60;99.90
28524;DHT22;15734;50.904;6.922;2023-04-15T03:30:31;3.50;99.90
28524;DHT22;15734;50.904;6.922;2023-04-15T03:32:57;3.60;99.90
28524;DHT22;15734;50.904;6.922;2023-04-15T03:35:22;3.70;99.90
28524;DHT22;15734;50.904;6.922;2023-04-15T03:37:47;3.70;99.90
28524;DHT22;15734;50.904;6.922;2023-04-15T03:40:13;3.70;99.90
28524;DHT22;15734;50.904;6.922;2023-04-15T03:42:39;3.70;99.90
28524;DHT22;15734;50.904;6.922;2023-04-15T03:45:05;3.80;99.90
28524;DHT22;15734;50.904;6.922;2023-04-15T03:47:30;3.90;99.90
28524;DHT22;15734;50.904;6.922;2023-04-15T03:49:56;4.00;99.90
28524;DHT22;15734;50.904;6.922;2023-04-15T03:52:21;4.00;99.90
28524;DHT22;15734;50.904;6.922;2023-04-15T03:54:47;4.00;99.90
28524;DHT22;15734;50.904;6.922;2023-04-15T03:57:12;4.00;99.90
28524;DHT22;15734;50.904;6.922;2023-04-15T03:59:37;4.00;99.90
28524;DHT22;15734;50.904;6.922;2023-04-15T04:02:03;4.10;99.90
28524;DHT22;15734;50.904;6.922;2023-04-15T04:04:28;4.10;99.90
28524;DHT22;15734;50.904;6.922;2023-04-15T04:06:54;4.00;99.90
28524;DHT22;15734;50.904;6.922;2023-04-15T04:09:19;4.10;99.90
28524;DHT22;15734;50.904;6.922;2023-04-15T04:11:45;4.00;99.90
28524;DHT22;15734;50.904;6.922;2023-04-15T04:14:10;3.80;99.90
28524;DHT22;15734;50.904;6.922;2023-04-15T04:16:36;3.60;99.90
28524;DHT22;15734;50.904;6.922;2023-04-15T04:19:01;3.50;99.90
28524;DHT22;15734;50.904;6.922;2023-04-15T04:21:27;3.40;99.90
28524;DHT22;15734;50.904;6.922;2023-04-15T04:23:52;3.50;99.90
28524;DHT22;15734;50.904;6.922;2023-04-15T04:26:18;3.50;99.90
28524;DHT22;15734;50.904;6.922;2023-04-15T04:28:43;3.50;99.90
28524;DHT22;15734;50.904;6.922;2023-04-15T04:31:09;3.40;99.90
28524;DHT22;15734;50.904;6.922;2023-04-15T04:33:35;3.40;99.90
28524;DHT22;15734;50.904;6.922;2023-04-15T04:36:00;3.40;99.90
28524;DHT22;15734;50.904;6.922;2023-04-15T04:38:26;3.40;99.90
28524;DHT22;15734;50.904;6.922;2023-04-15T04:40:51;3.30;99.90
28524;DHT22;15734;50.904;6.922;2023-04-15T04:43:16;3.30;99.90
28524;DHT22;15734;50.904;6.922;2023-04-15T04:45:42;3.40;99.90
28524;DHT22;15734;50.904;6.922;2023-04-15T04:48:07;3.50;99.90
28524;DHT22;15734;50.904;6.922;2023-04-15T04:50:34;3.70;99.90
28524;DHT22;15734;50.904;6.922;2023-04-15T04:53:00;3.80;99.90
28524;DHT22;15734;50.904;6.922;2023-04-15T04:55:25;3.80;99.90
28524;DHT22;15734;50.904;6.922;2023-04-15T04:57:51;3.80;99.90
28524;DHT22;15734;50.904;6.922;2023-04-15T05:00:16;3.70;99.90
28524;DHT22;15734;50.904;6.922;2023-04-15T05:02:42;3.60;99.90
28524;DHT22;15734;50.904;6.922;2023-04-15T05:05:08;3.50;99.90
28524;DHT22;15734;50.904;6.922;2023-04-15T05:07:34;3.40;99.90
28524;DHT22;15734;50.904;6.922;2023-04-15T05:09:59;3.50;99.90
28524;DHT22;15734;50.904;6.922;2023-04-15T05:12:25;3.60;99.90
28524;DHT22;15734;50.904;6.922;2023-04-15T05:14:50;3.60;99.90
28524;DHT22;15734;50.904;6.922;2023-04-15T05:17:16;3.50;99.90
28524;DHT22;15734;50.904;6.922;2023-04-15T05:19:41;3.50;99.90
28524;DHT22;15734;50.904;6.922;2023-04-15T05:22:07;3.50;99.90
28524;DHT22;15734;50.904;6.922;2023-04-15T05:24:32;3.60;99.90
28524;DHT22;15734;50.904;6.922;2023-04-15T05:26:58;3.50;99.90
28524;DHT22;15734;50.904;6.922;2023-04-15T05:29:23;3.70;99.90
28524;DHT22;15734;50.904;6.922;2023-04-15T05:31:49;3.70;99.90
28524;DHT22;15734;50.904;6.922;2023-04-15T05:34:14;3.60;99.90
28524;DHT22;15734;50.904;6.922;2023-04-15T05:36:41;3.50;99.90
28524;DHT22;15734;50.904;6.922;2023-04-15T05:39:07;3.40;99.90
28524;DHT22;15734;50.904;6.922;2023-04-15T05:41:33;3.40;99.90
28524;DHT22;15734;50.904;6.922;2023-04-15T05:43:58;3.40;99.90
28524;DHT22;15734;50.904;6.922;2023-04-15T05:46:24;3.50;99.90
28524;DHT22;15734;50.904;6.922;2023-04-15T05:48:50;3.60;99.90
28524;DHT22;15734;50.904;6.922;2023-04-15T05:51:15;3.80;99.90
28524;DHT22;15734;50.904;6.922;2023-04-15T05:53:41;4.10;99.90
28524;DHT22;15734;50.904;6.922;2023-04-15T05:56:06;4.40;99.90
28524;DHT22;15734;50.904;6.922;2023-04-15T05:58:32;4.70;99.90
28524;DHT22;15734;50.904;6.922;2023-04-15T06:00:57;4.80;99.90
28524;DHT22;15734;50.904;6.922;2023-04-15T06:03:23;5.00;99.90
28524;DHT22;15734;50.904;6.922;2023-04-15T06:05:48;5.20;99.90
28524;DHT22;15734;50.904;6.922;2023-04-15T06:08:14;5.30;99.90
28524;DHT22;15734;50.904;6.922;2023-04-15T06:10:39;5.40;99.90
28524;DHT22;15734;50.904;6.922;2023-04-15T06:13:04;5.50;99.90
28524;DHT22;15734;50.904;6.922;2023-04-15T06:15:30;5.70;99.90
28524;DHT22;15734;50.904;6.922;2023-04-15T06:17:56;5.80;99.90
28524;DHT22;15734;50.904;6.922;2023-04-15T06:20:21;6.00;99.90
28524;DHT22;15734;50.904;6.922;2023-04-15T06:22:47;6.10;99.90
28524;DHT22;15734;50.904;6.922;2023-04-15T06:25:12;6.20;99.90
28524;DHT22;15734;50.904;6.922;2023-04-15T06:27:38;6.30;99.90
28524;DHT22;15734;50.904;6.922;2023-04-15T06:30:04;6.40;99.90
28524;DHT22;15734;50.904;6.922;2023-04-15T06:32:29;6.50;99.90
28524;DHT22;15734;50.904;6.922;2023-04-15T06:34:56;6.60;99.90
28524;DHT22;15734;50.904;6.922;2023-04-15T06:37:21;6.70;99.90
28524;DHT22;15734;50.904;6.922;2023-04-15T06:39:47;6.90;99.90
28524;DHT22;15734;50.904;6.922;2023-04-15T06:42:12;7.00;99.90
28524;DHT22;15734;50.904;6.922;2023-04-15T06:44:38;7.10;99.90
28524;DHT22;15734;50.904;6.922;2023-04-15T06:47:03;7.20;99.90
28524;DHT22;15734;50.904;6.922;2023-04-15T06:49:29;7.30;99.90
28524;DHT22;15734;50.904;6.922;2023-04-15T06:51:54;7.50;99.90
28524;DHT22;15734;50.904;6.922;2023-04-15T06:54:19;7.60;99.90
28524;DHT22;15734;50.904;6.922;2023-04-15T06:56:45;7.70;99.90
28524;DHT22;15734;50.904;6.922;2023-04-15T06:59:11;7.80;99.90
28524;DHT22;15734;50.904;6.922;2023-04-15T07:01:41;7.90;99.90
28524;DHT22;15734;50.904;6.922;2023-04-15T07:04:06;8.00;99.90
28524;DHT22;15734;50.904;6.922;2023-04-15T07:06:32;8.10;99.90
28524;DHT22;15734;50.904;6.922;2023-04-15T07:08:58;8.20;99.90
28524;DHT22;15734;50.904;6.922;2023-04-15T07:11:25;8.30;99.90
28524;DHT22;15734;50.904;6.922;2023-04-15T07:13:50;8.50;99.90
28524;DHT22;15734;50.904;6.922;2023-04-15T07:16:15;8.60;99.90
28524;DHT22;15734;50.904;6.922;2023-04-15T07:18:41;8.70;99.90
28524;DHT22;15734;50.904;6.922;2023-04-15T07:21:07;8.80;99.90
28524;DHT22;15734;50.904;6.922;2023-04-15T07:23:33;8.90;99.90
28524;DHT22;15734;50.904;6.922;2023-04-15T07:25:58;9.10;99.90
28524;DHT22;15734;50.904;6.922;2023-04-15T07:28:24;9.20;99.90
28524;DHT22;15734;50.904;6.922;2023-04-15T07:30:50;9.40;99.90
28524;DHT22;15734;50.904;6.922;2023-04-15T07:33:15;9.60;99.90
28524;DHT22;15734;50.904;6.922;2023-04-15T07:35:41;9.70;99.90
28524;DHT22;15734;50.904;6.922;2023-04-15T07:38:06;9.80;99.90
28524;DHT22;15734;50.904;6.922;2023-04-15T07:40:32;10.00;99.90
28524;DHT22;15734;50.904;6.922;2023-04-15T07:42:58;10.10;99.90
28524;DHT22;15734;50.904;6.922;2023-04-15T07:45:23;10.20;99.90
28524;DHT22;15734;50.904;6.922;2023-04-15T07:47:49;10.40;99.90
28524;DHT22;15734;50.904;6.922;2023-04-15T07:50:15;10.50;99.90
28524;DHT22;15734;50.904;6.922;2023-04-15T07:52:41;10.60;99.90
28524;DHT22;15734;50.904;6.922;2023-04-15T07:55:07;10.70;99.90
28524;DHT22;15734;50.904;6.922;2023-04-15T07:57:36;10.90;99.90
28524;DHT22;15734;50.904;6.922;2023-04-15T08:00:02;11.00;99.90
28524;DHT22;15734;50.904;6.922;2023-04-15T08:02:30;11.10;99.90
28524;DHT22;15734;50.904;6.922;2023-04-15T08:04:55;11.20;99.90
28524;DHT22;15734;50.904;6.922;2023-04-15T08:07:22;11.30;99.90
28524;DHT22;15734;50.904;6.922;2023-04-15T08:09:47;11.40;99.90
28524;DHT22;15734;50.904;6.922;2023-04-15T08:12:13;11.50;99.90
28524;DHT22;15734;50.904;6.922;2023-04-15T08:14:39;11.70;99.90
28524;DHT22;15734;50.904;6.922;2023-04-15T08:17:04;11.80;99.90
28524;DHT22;15734;50.904;6.922;2023-04-15T08:19:30;11.90;99.90
28524;DHT22;15734;50.904;6.922;2023-04-15T08:21:56;12.00;99.90
28524;DHT22;15734;50.904;6.922;2023-04-15T08:24:22;12.00;99.90
28524;DHT22;15734;50.904;6.922;2023-04-15T08:26:47;11.90;99.90
28524;DHT22;15734;50.904;6.922;2023-04-15T08:29:13;11.80;99.90
28524;DHT22;15734;50.904;6.922;2023-04-15T08:31:38;11.80;99.90
28524;DHT22;15734;50.904;6.922;2023-04-15T08:34:03;11.90;99.90
28524;DHT22;15734;50.904;6.922;2023-04-15T08:36:29;11.90;99.90
28524;DHT22;15734;50.904;6.922;2023-04-15T08:38:56;12.10;99.90
28524;DHT22;15734;50.904;6.922;2023-04-15T08:41:25;12.20;99.90
28524;DHT22;15734;50.904;6.922;2023-04-15T08:44:00;12.30;99.90
28524;DHT22;15734;50.904;6.922;2023-04-15T08:46:26;12.40;99.90
28524;DHT22;15734;50.904;6.922;2023-04-15T08:48:52;12.50;99.90
28524;DHT22;15734;50.904;6.922;2023-04-15T08:51:18;12.50;99.90
28524;DHT22;15734;50.904;6.922;2023-04-15T08:53:44;12.50;99.90
28524;DHT22;15734;50.904;6.922;2023-04-15T08:56:11;12.60;99.90
28524;DHT22;15734;50.904;6.922;2023-04-15T08:58:38;12.60;99.90
28524;DHT22;15734;50.904;6.922;2023-04-15T09:01:04;12.70;99.90
28524;DHT22;15734;50.904;6.922;2023-04-15T09:03:29;12.60;99.90
28524;DHT22;15734;50.904;6.922;2023-04-15T09:05:56;12.70;99.90
28524;DHT22;15734;50.904;6.922;2023-04-15T09:08:21;12.70;99.90
28524;DHT22;15734;50.904;6.922;2023-04-15T09:10:47;12.80;99.90
28524;DHT22;15734;50.904;6.922;2023-04-15T09:13:12;12.80;99.90
28524;DHT22;15734;50.904;6.922;2023-04-15T09:15:38;12.80;99.90
28524;DHT22;15734;50.904;6.922;2023-04-15T09:18:03;12.80;99.90
28524;DHT22;15734;50.904;6.922;2023-04-15T09:20:30;12.70;99.90
28524;DHT22;15734;50.904;6.922;2023-04-15T09:23:03;12.80;99.90
28524;DHT22;15734;50.904;6.922;2023-04-15T09:25:36;12.90;99.90
28524;DHT22;15734;50.904;6.922;2023-04-15T09:28:02;12.90;99.90
28524;DHT22;15734;50.904;6.922;2023-04-15T09:30:27;12.90;99.90
28524;DHT22;15734;50.904;6.922;2023-04-15T09:32:53;13.00;99.90
28524;DHT22;15734;50.904;6.922;2023-04-15T09:35:20;13.20;99.90
28524;DHT22;15734;50.904;6.922;2023-04-15T09:37:46;13.30;99.90
28524;DHT22;15734;50.904;6.922;2023-04-15T09:40:12;13.10;99.90
28524;DHT22;15734;50.904;6.922;2023-04-15T09:42:53;12.80;99.90
28524;DHT22;15734;50.904;6.922;2023-04-15T09:45:19;12.80;99.90
28524;DHT22;15734;50.904;6.922;2023-04-15T09:47:44;12.90;99.90
28524;DHT22;15734;50.904;6.922;2023-04-15T09:50:10;13.00;99.90
28524;DHT22;15734;50.904;6.922;2023-04-15T09:52:40;13.10;99.90
28524;DHT22;15734;50.904;6.922;2023-04-15T09:55:06;12.90;99.90
28524;DHT22;15734;50.904;6.922;2023-04-15T09:57:35;12.90;99.90
28524;DHT22;15734;50.904;6.922;2023-04-15T10:00:02;13.00;99.90
28524;DHT22;15734;50.904;6.922;2023-04-15T10:02:28;13.10;99.90
28524;DHT22;15734;50.904;6.922;2023-04-15T10:04:54;13.30;99.90
28524;DHT22;15734;50.904;6.922;2023-04-15T10:07:20;13.50;99.90
28524;DHT22;15734;50.904;6.922;2023-04-15T10:09:47;13.60;99.90
28524;DHT22;15734;50.904;6.922;2023-04-15T10:12:13;13.40;99.90
28524;DHT22;15734;50.904;6.922;2023-04-15T10:14:39;13.40;99.90
28524;DHT22;15734;50.904;6.922;2023-04-15T10:17:07;13.60;99.90
28524;DHT22;15734;50.904;6.922;2023-04-15T10:19:35;13.70;99.90
28524;DHT22;15734;50.904;6.922;2023-04-15T10:22:01;13.70;99.90
28524;DHT22;15734;50.904;6.922;2023-04-15T10:24:27;13.80;99.90
28524;DHT22;15734;50.904;6.922;2023-04-15T10:26:53;14.10;99.90
28524;DHT22;15734;50.904;6.922;2023-04-15T10:29:19;14.20;99.90
28524;DHT22;15734;50.904;6.922;2023-04-15T10:31:45;13.70;99.90
28524;DHT22;15734;50.904;6.922;2023-04-15T10:34:10;13.60;99.90
28524;DHT22;15734;50.904;6.922;2023-04-15T10:36:36;13.50;99.90
28524;DHT22;15734;50.904;6.922;2023-04-15T10:39:03;13.40;99.90
28524;DHT22;15734;50.904;6.922;2023-04-15T10:41:54;13.30;99.90
28524;DHT22;15734;50.904;6.922;2023-04-15T10:44:30;13.40;99.90
28524;DHT22;15734;50.904;6.922;2023-04-15T10:46:55;13.70;99.90
28524;DHT22;15734;50.904;6.922;2023-04-15T10:49:25;14.00;99.90
28524;DHT22;15734;50.904;6.922;2023-04-15T10:51:51;13.90;99.90
28524;DHT22;15734;50.904;6.922;2023-04-15T10:56:49;13.60;99.90
28524;DHT22;15734;50.904;6.922;2023-04-15T10:59:15;13.70;99.90
28524;DHT22;15734;50.904;6.922;2023-04-15T11:01:54;13.90;99.90
28524;DHT22;15734;50.904;6.922;2023-04-15T11:07:08;13.90;99.90
28524;DHT22;15734;50.904;6.922;2023-04-15T11:09:33;13.90;99.90
28524;DHT22;15734;50.904;6.922;2023-04-15T11:12:05;13.70;99.90
28524;DHT22;15734;50.904;6.922;2023-04-15T11:14:33;13.60;99.90
28524;DHT22;15734;50.904;6.922;2023-04-15T11:17:00;13.80;99.90
28524;DHT22;15734;50.904;6.922;2023-04-15T11:19:25;13.80;99.90
28524;DHT22;15734;50.904;6.922;2023-04-15T11:21:51;14.00;99.90
28524;DHT22;15734;50.904;6.922;2023-04-15T11:24:23;14.00;99.90
28524;DHT22;15734;50.904;6.922;2023-04-15T11:26:58;14.10;99.90
28524;DHT22;15734;50.904;6.922;2023-04-15T11:29:28;14.30;99.90
28524;DHT22;15734;50.904;6.922;2023-04-15T11:32:00;14.50;99.90
28524;DHT22;15734;50.904;6.922;2023-04-15T11:34:26;14.30;99.90
28524;DHT22;15734;50.904;6.922;2023-04-15T11:36:51;14.40;99.90
28524;DHT22;15734;50.904;6.922;2023-04-15T11:39:21;14.30;99.90
28524;DHT22;15734;50.904;6.922;2023-04-15T11:41:46;14.20;99.90
28524;DHT22;15734;50.904;6.922;2023-04-15T11:44:18;14.10;99.90
28524;DHT22;15734;50.904;6.922;2023-04-15T11:46:43;13.90;99.90
28524;DHT22;15734;50.904;6.922;2023-04-15T11:49:09;13.80;99.90
28524;DHT22;15734;50.904;6.922;2023-04-15T11:51:34;13.80;99.90
28524;DHT22;15734;50.904;6.922;2023-04-15T11:54:00;13.70;99.90
28524;DHT22;15734;50.904;6.922;2023-04-15T11:56:25;13.80;99.90
28524;DHT22;15734;50.904;6.922;2023-04-15T11:58:55;13.90;99.90
28524;DHT22;15734;50.904;6.922;2023-04-15T12:01:29;13.60;99.90
28524;DHT22;15734;50.904;6.922;2023-04-15T12:03:55;13.40;99.90
28524;DHT22;15734;50.904;6.922;2023-04-15T12:06:21;13.50;99.90
28524;DHT22;15734;50.904;6.922;2023-04-15T12:11:17;13.30;99.90
28524;DHT22;15734;50.904;6.922;2023-04-15T12:13:43;13.20;99.90
28524;DHT22;15734;50.904;6.922;2023-04-15T12:16:09;13.20;99.90
28524;DHT22;15734;50.904;6.922;2023-04-15T12:18:36;13.20;99.90
28524;DHT22;15734;50.904;6.922;2023-04-15T12:21:11;13.10;99.90
28524;DHT22;15734;50.904;6.922;2023-04-15T12:23:37;13.20;99.90
28524;DHT22;15734;50.904;6.922;2023-04-15T12:26:05;13.20;99.90
28524;DHT22;15734;50.904;6.922;2023-04-15T12:28:33;13.10;99.90
28524;DHT22;15734;50.904;6.922;2023-04-15T12:30:58;12.90;99.90
28524;DHT22;15734;50.904;6.922;2023-04-15T12:33:31;12.90;99.90
28524;DHT22;15734;50.904;6.922;2023-04-15T12:35:57;12.90;99.90
28524;DHT22;15734;50.904;6.922;2023-04-15T12:38:22;12.90;99.90
28524;DHT22;15734;50.904;6.922;2023-04-15T12:40:47;12.90;99.90
28524;DHT22;15734;50.904;6.922;2023-04-15T12:43:13;12.90;99.90
28524;DHT22;15734;50.904;6.922;2023-04-15T12:45:38;12.90;99.90
28524;DHT22;15734;50.904;6.922;2023-04-15T12:48:04;12.90;99.90
28524;DHT22;15734;50.904;6.922;2023-04-15T12:50:29;12.90;99.90
28524;DHT22;15734;50.904;6.922;2023-04-15T12:52:55;12.90;99.90
28524;DHT22;15734;50.904;6.922;2023-04-15T12:55:20;12.80;99.90
28524;DHT22;15734;50.904;6.922;2023-04-15T12:57:46;12.80;99.90
28524;DHT22;15734;50.904;6.922;2023-04-15T13:00:11;12.90;99.90
28524;DHT22;15734;50.904;6.922;2023-04-15T13:02:37;12.80;99.90
28524;DHT22;15734;50.904;6.922;2023-04-15T13:05:02;12.70;99.90
28524;DHT22;15734;50.904;6.922;2023-04-15T13:07:28;12.60;99.90
28524;DHT22;15734;50.904;6.922;2023-04-15T13:09:53;12.40;99.90
28524;DHT22;15734;50.904;6.922;2023-04-15T13:12:19;12.30;99.90
28524;DHT22;15734;50.904;6.922;2023-04-15T13:14:44;12.20;99.90
28524;DHT22;15734;50.904;6.922;2023-04-15T13:17:10;12.20;99.90
28524;DHT22;15734;50.904;6.922;2023-04-15T13:19:35;12.20;99.90
28524;DHT22;15734;50.904;6.922;2023-04-15T13:22:01;12.20;99.90
28524;DHT22;15734;50.904;6.922;2023-04-15T13:24:26;12.30;99.90
28524;DHT22;15734;50.904;6.922;2023-04-15T13:26:52;12.30;99.90
28524;DHT22;15734;50.904;6.922;2023-04-15T13:29:18;12.20;99.90
28524;DHT22;15734;50.904;6.922;2023-04-15T13:31:43;12.20;99.90
28524;DHT22;15734;50.904;6.922;2023-04-15T13:34:09;12.10;99.90
28524;DHT22;15734;50.904;6.922;2023-04-15T13:36:34;12.00;99.90
28524;DHT22;15734;50.904;6.922;2023-04-15T13:39:00;12.00;99.90
28524;DHT22;15734;50.904;6.922;2023-04-15T13:41:25;12.00;99.90
28524;DHT22;15734;50.904;6.922;2023-04-15T13:43:51;12.00;99.90
28524;DHT22;15734;50.904;6.922;2023-04-15T13:46:16;11.90;99.90
28524;DHT22;15734;50.904;6.922;2023-04-15T13:48:42;12.00;99.90
28524;DHT22;15734;50.904;6.922;2023-04-15T13:51:07;11.90;99.90
28524;DHT22;15734;50.904;6.922;2023-04-15T13:53:32;11.90;99.90
28524;DHT22;15734;50.904;6.922;2023-04-15T13:55:58;11.90;99.90
28524;DHT22;15734;50.904;6.922;2023-04-15T13:58:23;11.90;99.90
28524;DHT22;15734;50.904;6.922;2023-04-15T14:00:49;11.90;99.90
28524;DHT22;15734;50.904;6.922;2023-04-15T14:03:14;11.90;99.90
28524;DHT22;15734;50.904;6.922;2023-04-15T14:05:40;11.90;99.90
28524;DHT22;15734;50.904;6.922;2023-04-15T14:08:06;11.90;99.90
28524;DHT22;15734;50.904;6.922;2023-04-15T14:10:31;11.90;99.90
28524;DHT22;15734;50.904;6.922;2023-04-15T14:12:57;11.80;99.90
28524;DHT22;15734;50.904;6.922;2023-04-15T14:15:22;11.80;99.90
28524;DHT22;15734;50.904;6.922;2023-04-15T14:17:47;11.80;99.90
28524;DHT22;15734;50.904;6.922;2023-04-15T14:20:13;11.70;99.90
28524;DHT22;15734;50.904;6.922;2023-04-15T14:22:38;11.60;99.90
28524;DHT22;15734;50.904;6.922;2023-04-15T14:25:04;11.60;99.90
28524;DHT22;15734;50.904;6.922;2023-04-15T14:27:30;11.70;99.90
28524;DHT22;15734;50.904;6.922;2023-04-15T14:29:56;11.70;99.90
28524;DHT22;15734;50.904;6.922;2023-04-15T14:32:24;11.70;99.90
28524;DHT22;15734;50.904;6.922;2023-04-15T14:34:49;11.70;99.90
28524;DHT22;15734;50.904;6.922;2023-04-15T14:37:15;11.70;99.90
28524;DHT22;15734;50.904;6.922;2023-04-15T14:39:40;11.60;99.90
28524;DHT22;15734;50.904;6.922;2023-04-15T14:42:06;11.60;99.90
28524;DHT22;15734;50.904;6.922;2023-04-15T14:44:31;11.70;99.90
28524;DHT22;15734;50.904;6.922;2023-04-15T14:46:57;11.60;99.90
28524;DHT22;15734;50.904;6.922;2023-04-15T14:49:22;11.60;99.90
28524;DHT22;15734;50.904;6.922;2023-04-15T14:51:48;11.60;99.90
28524;DHT22;15734;50.904;6.922;2023-04-15T14:54:13;11.50;99.90
28524;DHT22;15734;50.904;6.922;2023-04-15T14:56:39;11.50;99.90
28524;DHT22;15734;50.904;6.922;2023-04-15T14:59:04;11.40;99.90
28524;DHT22;15734;50.904;6.922;2023-04-15T15:01:30;11.40;99.90
28524;DHT22;15734;50.904;6.922;2023-04-15T15:03:55;11.30;99.90
28524;DHT22;15734;50.904;6.922;2023-04-15T15:06:21;11.40;99.90
28524;DHT22;15734;50.904;6.922;2023-04-15T15:08:47;11.40;99.90
28524;DHT22;15734;50.904;6.922;2023-04-15T15:11:13;11.50;99.90
28524;DHT22;15734;50.904;6.922;2023-04-15T15:13:38;11.60;99.90
28524;DHT22;15734;50.904;6.922;2023-04-15T15:16:04;11.60;99.90
28524;DHT22;15734;50.904;6.922;2023-04-15T15:18:29;11.60;99.90
28524;DHT22;15734;50.904;6.922;2023-04-15T15:20:55;11.60;99.90
28524;DHT22;15734;50.904;6.922;2023-04-15T15:23:20;11.60;99.90
28524;DHT22;15734;50.904;6.922;2023-04-15T15:25:46;11.50;99.90
28524;DHT22;15734;50.904;6.922;2023-04-15T15:28:12;11.50;99.90
28524;DHT22;15734;50.904;6.922;2023-04-15T15:30:37;11.40;99.90
28524;DHT22;15734;50.904;6.922;2023-04-15T15:33:03;11.30;99.90
28524;DHT22;15734;50.904;6.922;2023-04-15T15:35:28;11.30;99.90
28524;DHT22;15734;50.904;6.922;2023-04-15T15:37:53;11.30;99.90